Latest Weather Observations for Yarram Airport

IDV60801

Issued at 7:02 am EST Thursday 28 July 2016 (issued every 30 minutes, with the page automatically refreshed every 10 minutes)

About weather observations | Map of weather stations | Latest weather observations for VIC | Other Formats
Station Details ID: 085151 Name: YARRAM AIRPORT Lat: -38.56 Lon: 146.75 Height: 17.9 m
Data from the previous 72 hours. | See also: Recent months at Yarram Airport
Date/Time
EST
Temp
°C
App
Temp
°C
Dew
Point
°C
Rel
Hum
%
Delta-T
°C
Wind Press
QNH
hPa
Press
MSL
hPa
Rain since
9am
mm
Dir  Spd
km/h
Gust
km/h
Spd
kts
Gust
kts
28/07:00am 10.3 2.9 6.6 78 1.7 WNW 35 48 19 26 1019.3 1019.4 0.2
28/06:30am 10.4 3.6 6.7 78 1.7 WNW 32 41 17 22 1019.4 1019.5 0.2
28/06:14am 10.3 3.4 6.6 78 1.7 WNW 32 50 17 27 1019.3 1019.4 0.2
28/06:00am 10.3 3.3 6.8 79 1.6 WNW 33 46 18 25 1019.0 1019.1 0.2
28/05:30am 10.0 3.5 6.7 80 1.5 WNW 30 48 16 26 1018.8 1018.9 0.2
28/05:15am 10.2 3.4 6.7 79 1.6 WNW 32 50 17 27 1018.5 1018.6 0.2
28/05:00am 10.1 3.6 6.6 79 1.6 WNW 30 46 16 25 1018.6 1018.7 0.2
28/04:30am 10.0 3.1 6.5 79 1.6 WNW 32 44 17 24 1018.5 1018.6 0.2
28/04:00am 10.0 3.1 6.5 79 1.6 WNW 32 48 17 26 1018.1 1018.2 0.2
28/03:33am 9.7 1.8 6.4 80 1.5 WNW 37 56 20 30 1017.9 1018.0 0.2
28/03:30am 9.7 1.8 6.4 80 1.5 WNW 37 50 20 27 1017.9 1018.0 0.2
28/03:00am 9.5 2.4 6.4 81 1.4 WNW 33 48 18 26 1018.0 1018.1 0.2
28/02:30am 9.6 2.5 6.5 81 1.4 WNW 33 46 18 25 1018.5 1018.6 0.2
28/02:00am 9.2 3.1 6.5 83 1.2 WNW 28 37 15 20 1018.5 1018.6 0.2
28/01:30am 9.3 3.5 6.4 82 1.3 WNW 26 37 14 20 1018.5 1018.6 0.2
28/01:00am 9.5 3.4 6.4 81 1.4 WNW 28 37 15 20 1018.5 1018.6 0.2
28/12:30am 9.3 2.3 5.9 79 1.6 WNW 32 43 17 23 1018.2 1018.3 0.2
28/12:00am 9.7 2.1 5.9 77 1.7 WNW 35 48 19 26 1018.0 1018.1 0.2
 
Date/Time
EST
Temp
°C
App
Temp
°C
Dew
Point
°C
Rel
Hum
%
Delta-T
°C
Wind Press
QNH
hPa
Press
MSL
hPa
Rain since
9am
mm
Dir  Spd
km/h
Gust
km/h
Spd
kts
Gust
kts
27/11:35pm 9.7 2.5 5.9 77 1.7 WNW 33 52 18 28 1017.8 1017.9 0.2
27/11:30pm 9.6 1.7 6.0 78 1.7 WNW 37 52 20 28 1017.8 1017.9 0.2
27/11:00pm 9.7 2.6 5.7 76 1.8 WNW 32 46 17 25 1018.0 1018.1 0.2
27/10:30pm 9.2 2.5 5.8 79 1.6 WNW 30 43 16 23 1018.1 1018.2 0.2
27/10:00pm 9.1 3.2 5.8 80 1.5 WNW 26 41 14 22 1017.8 1017.9 0.2
27/09:45pm 9.1 2.4 5.7 79 1.5 WNW 30 48 16 26 1018.2 1018.3 0.2
27/09:30pm 9.1 2.1 5.8 80 1.5 WNW 32 44 17 24 1018.1 1018.2 0.2
27/09:00pm 8.9 1.9 5.8 81 1.4 WNW 32 43 17 23 1018.3 1018.4 0.2
27/08:30pm 8.8 1.7 5.5 80 1.5 WNW 32 44 17 24 1018.0 1018.1 0.2
27/08:00pm 9.0 1.7 5.6 79 1.5 WNW 33 46 18 25 1018.0 1018.1 0.2
27/07:30pm 8.7 1.6 5.3 79 1.5 WNW 32 41 17 22 1017.6 1017.7 0.2
27/07:00pm 8.8 1.6 5.2 78 1.6 WNW 32 39 17 21 1017.5 1017.6 0.2
27/06:30pm 8.3 1.0 4.7 78 1.6 WNW 32 41 17 22 1016.8 1016.9 0.2
27/06:00pm 8.7 1.5 4.9 77 1.7 WNW 32 43 17 23 1016.2 1016.3 0.2
27/05:30pm 8.4 1.8 4.4 76 1.8 WNW 28 41 15 22 1016.2 1016.3 0.2
27/05:00pm 9.2 2.3 4.6 73 2.0 W 30 39 16 21 1015.7 1015.8 0.2
27/04:30pm 9.3 1.5 4.9 74 2.0 W 35 57 19 31 1015.3 1015.4 0.2
27/04:25pm 9.7 2.9 4.9 72 2.2 W 30 54 16 29 1015.4 1015.5 0.2
27/04:00pm 9.6 2.2 4.2 69 2.4 WSW 32 43 17 23 1014.9 1015.0 0.0
27/03:35pm 11.0 3.6 5.1 67 2.7 W 33 52 18 28 1014.5 1014.6 0.0
27/03:30pm 10.8 3.5 5.3 69 2.5 W 33 48 18 26 1014.4 1014.5 0.0
27/03:00pm 11.0 5.4 5.3 68 2.6 W 24 37 13 20 1013.9 1014.0 0.0
27/02:30pm 10.1 3.8 5.5 73 2.1 W 28 39 15 21 1013.8 1013.9 0.0
27/02:00pm 11.1 3.5 4.1 62 3.1 W 33 43 18 23 1013.0 1013.1 0.0
27/01:30pm 11.1 2.3 3.4 59 3.4 W 39 52 21 28 1012.8 1012.9 0.0
27/01:16pm 11.1 4.0 3.6 60 3.3 WSW 30 48 16 26 1012.6 1012.7 0.0
27/01:00pm 11.0 3.7 4.5 64 2.9 WSW 32 46 17 25 1012.4 1012.5 0.0
27/12:30pm 10.9 3.1 5.0 67 2.7 WSW 35 46 19 25 1012.4 1012.5 0.0
27/12:02pm 10.3 2.5 5.1 70 2.4 WSW 35 54 19 29 1012.4 1012.5 0.0
27/12:00pm 10.3 2.1 4.9 69 2.4 SW 37 54 20 29 1012.5 1012.6 0.0
27/11:41am 10.9 3.5 4.1 63 3.0 WSW 32 52 17 28 1012.3 1012.4 0.0
27/11:30am 11.5 4.1 5.2 65 2.9 WSW 33 43 18 23 1012.2 1012.3 0.0
27/11:00am 10.7 4.8 5.9 72 2.2 WSW 26 35 14 19 1012.1 1012.2 0.0
27/10:30am 10.3 5.3 6.6 78 1.7 WSW 22 32 12 17 1011.8 1011.9 0.0
27/10:00am 9.7 4.8 7.0 83 1.3 WSW 22 28 12 15 1011.3 1011.4 0.0
27/09:30am 9.4 5.7 7.8 90 0.8 W 17 22 9 12 1010.5 1010.6 0.0
27/09:00am 9.2 4.5 7.6 90 0.8 W 22 32 12 17 1009.4 1009.5 0.0
27/08:30am 9.4 3.4 7.0 85 1.1 W 28 41 15 22 1008.3 1008.4 0.0
27/08:00am 9.6 4.1 6.1 79 1.6 WNW 24 33 13 18 1007.4 1007.4 0.0
27/07:30am 9.3 4.1 5.7 78 1.6 WNW 22 33 12 18 1007.0 1007.0 0.0
27/07:00am 9.6 4.0 5.2 74 2.0 WNW 24 32 13 17 1006.5 1006.5 0.0
27/06:30am 9.8 4.5 4.8 71 2.2 WNW 22 30 12 16 1006.2 1006.2 0.0
27/06:00am 9.6 4.2 4.6 71 2.2 W 22 32 12 17 1005.8 1005.8 0.0
27/05:30am 9.8 4.0 4.2 68 2.5 W 24 39 13 21 1005.3 1005.3 0.0
27/05:00am 8.8 3.6 3.8 71 2.2 WNW 20 28 11 15 1004.5 1004.5 0.0
27/04:30am 9.0 3.8 3.6 69 2.3 W 20 41 11 22 1004.2 1004.2 0.0
27/04:00am 9.7 3.3 3.4 65 2.7 WNW 26 43 14 23 1003.5 1003.5 0.0
27/03:30am 9.5 4.3 3.5 66 2.6 NW 20 32 11 17 1003.6 1003.6 0.0
27/03:00am 9.6 3.9 3.1 64 2.8 NW 22 30 12 16 1003.7 1003.7 0.0
27/02:30am 9.1 3.9 2.7 64 2.7 NNW 19 35 10 19 1003.9 1003.9 0.0
27/02:00am 8.5 3.1 2.3 65 2.6 NNW 20 32 11 17 1004.0 1004.0 0.0
27/01:30am 7.2 3.0 1.5 67 2.3 NNW 13 19 7 10 1004.3 1004.3 0.0
27/01:00am 9.1 4.9 1.8 60 3.0 NNW 13 20 7 11 1004.5 1004.5 0.0
27/12:30am 8.7 4.1 1.8 62 2.9 N 15 22 8 12 1004.6 1004.6 0.0
27/12:00am 8.9 3.6 2.0 62 2.9 NNW 19 30 10 16 1004.6 1004.6 0.0
 
Date/Time
EST
Temp
°C
App
Temp
°C
Dew
Point
°C
Rel
Hum
%
Delta-T
°C
Wind Press
QNH
hPa
Press
MSL
hPa
Rain since
9am
mm
Dir  Spd
km/h
Gust
km/h
Spd
kts
Gust
kts
26/11:30pm 9.9 3.3 1.8 57 3.4 NNW 26 37 14 20 1004.9 1004.9 0.0
26/11:00pm 9.6 3.1 2.5 61 3.0 NW 26 35 14 19 1005.4 1005.4 0.0
26/10:37pm 9.7 2.3 2.1 59 3.2 NW 30 48 16 26 1005.3 1005.3 0.0
26/10:30pm 9.7 2.4 2.3 60 3.1 NW 30 46 16 25 1005.4 1005.4 0.0
26/10:26pm 9.8 2.8 2.2 59 3.2 NW 28 46 15 25 1005.5 1005.5 0.0
26/10:00pm 9.0 4.1 2.1 62 2.9 NW 17 28 9 15 1005.9 1005.9 0.0
26/09:30pm 8.0 3.8 1.8 65 2.5 N 13 20 7 11 1006.1 1006.1 0.0
26/09:00pm 9.1 3.8 1.8 60 3.0 NNW 19 30 10 16 1006.2 1006.2 0.0
26/08:30pm 8.3 4.5 1.7 63 2.7 NW 11 26 6 14 1006.6 1006.6 0.0
26/08:00pm 8.2 4.0 1.6 63 2.7 NNW 13 20 7 11 1006.6 1006.6 0.0
26/07:30pm 7.8 2.8 1.6 65 2.5 NNW 17 24 9 13 1006.7 1006.7 0.0
26/07:00pm 9.0 1.2 1.7 60 3.0 NNW 32 46 17 25 1006.8 1006.8 0.0
26/06:30pm 8.4 2.2 2.0 64 2.7 NW 24 39 13 21 1006.9 1006.9 0.0
26/06:00pm 8.1 3.5 1.3 62 2.8 N 15 24 8 13 1007.0 1007.0 0.0
26/05:30pm 8.5 3.8 1.2 60 3.0 NW 15 24 8 13 1007.3 1007.3 0.0
26/05:00pm 9.4 3.4 1.1 56 3.4 WNW 22 33 12 18 1007.3 1007.3 0.0
26/04:30pm 9.2 4.2 1.4 58 3.2 NW 17 22 9 12 1007.3 1007.3 0.0
26/04:00pm 9.8 2.3 0.9 54 3.7 NW 30 44 16 24 1007.7 1007.7 0.0
26/03:30pm 10.5 2.4 1.1 52 3.9 NW 33 48 18 26 1008.0 1008.0 0.0
26/03:19pm 10.4 1.9 1.2 53 3.8 NW 35 54 19 29 1007.9 1007.9 0.0
26/03:00pm 10.3 1.9 1.7 55 3.6 NW 35 50 19 27 1008.1 1008.1 0.0
26/02:30pm 10.3 2.0 1.9 56 3.5 WNW 35 54 19 29 1008.5 1008.6 0.0
26/02:00pm 10.5 1.8 1.9 55 3.6 NW 37 57 20 31 1008.7 1008.8 0.0
26/01:31pm 10.8 2.3 2.9 58 3.4 NW 37 56 20 30 1008.9 1009.0 0.0
26/01:30pm 10.7 1.7 2.5 57 3.5 NW 39 56 21 30 1008.9 1009.0 0.0
26/01:00pm 10.5 1.1 2.4 57 3.5 NW 41 56 22 30 1009.3 1009.4 0.0
26/12:48pm 10.6 2.3 2.4 57 3.5 NW 35 56 19 30 1009.4 1009.5 0.0
26/12:30pm 10.7 2.9 3.0 59 3.3 NW 33 44 18 24 1009.6 1009.7 0.0
26/12:00pm 10.4 3.2 3.0 60 3.2 NW 30 46 16 25 1010.1 1010.2 0.0
26/11:59am 10.4 3.5 2.5 58 3.4 NW 28 46 15 25 1010.1 1010.2 0.0
26/11:30am 10.0 1.6 1.6 56 3.5 NW 35 46 19 25 1010.1 1010.2 0.0
26/11:18am 9.9 2.1 2.7 61 3.1 NW 33 52 18 28 1010.2 1010.3 0.0
26/11:00am 9.6 1.4 2.9 63 2.9 NW 35 50 19 27 1010.1 1010.2 0.0
26/10:30am 9.3 1.7 2.9 64 2.7 NW 32 44 17 24 1010.2 1010.3 0.0
26/10:00am 9.2 1.6 2.8 64 2.7 WNW 32 48 17 26 1010.1 1010.2 0.0
26/09:54am 9.0 1.8 3.0 66 2.6 WNW 30 48 16 26 1010.2 1010.3 0.0
26/09:30am 8.4 0.5 2.4 66 2.5 NW 33 44 18 24 1010.0 1010.1 0.0
26/09:00am 8.2 0.6 2.7 68 2.3 WNW 32 41 17 22 1010.0 1010.1 3.2
26/08:30am 8.0 0.7 2.3 67 2.4 WNW 30 48 16 26 1009.6 1009.7 3.2
26/08:01am 7.6 0.6 1.9 67 2.3 WNW 28 54 15 29 1009.2 1009.3 3.2
26/08:00am 7.3 0.7 1.8 68 2.2 WNW 26 48 14 26 1009.4 1009.5 3.2
26/07:30am 7.4 1.6 2.1 69 2.2 NW 22 32 12 17 1009.2 1009.3 3.2
26/07:00am 6.8 1.0 2.1 72 1.9 WNW 22 33 12 18 1008.5 1008.6 3.2
26/06:30am 6.8 -1.1 2.1 72 1.9 WNW 33 48 18 26 1007.7 1007.7 3.2
26/06:00am 7.3 -0.1 1.6 67 2.3 WNW 30 54 16 29 1007.3 1007.3 3.2
26/05:32am 7.5 -1.3 1.6 66 2.4 WNW 37 56 20 30 1006.7 1006.7 3.2
26/05:30am 7.6 -1.6 1.5 65 2.5 WNW 39 56 21 30 1006.8 1006.8 3.2
26/05:00am 7.9 -2.2 1.3 63 2.7 WNW 44 69 24 37 1006.3 1006.3 3.2
26/04:30am 7.9 -2.0 1.5 64 2.6 WNW 43 65 23 35 1005.6 1005.6 3.2
26/04:00am 7.7 -0.7 1.3 64 2.6 WNW 35 57 19 31 1005.3 1005.3 3.2
26/03:30am 7.8 -0.9 1.9 66 2.4 WNW 37 56 20 30 1005.4 1005.4 3.2
26/03:00am 7.7 -1.5 1.5 65 2.5 WNW 39 61 21 33 1004.9 1004.9 3.2
26/02:30am 7.7 -1.0 1.8 66 2.4 WNW 37 57 20 31 1004.8 1004.8 3.2
26/02:00am 8.0 -1.4 2.3 67 2.4 WNW 41 61 22 33 1005.1 1005.1 3.2
26/01:30am 8.1 -0.6 1.9 65 2.6 WNW 37 56 20 30 1004.7 1004.7 3.2
26/01:12am 8.1 -1.4 1.7 64 2.6 WNW 41 63 22 34 1004.7 1004.7 3.2
26/01:00am 7.9 -1.2 2.0 66 2.4 WNW 39 54 21 29 1004.7 1004.7 3.2
26/12:30am 8.2 -2.6 2.2 66 2.5 WNW 48 76 26 41 1004.3 1004.3 3.2
26/12:26am 8.3 -2.1 2.3 66 2.5 WNW 46 76 25 41 1004.3 1004.3 3.2
26/12:25am 8.5 -1.9 2.1 64 2.7 WNW 46 76 25 41 1004.2 1004.2 3.2
26/12:22am 8.3 -0.7 2.3 66 2.5 WNW 39 61 21 33 1004.3 1004.3 3.2
26/12:00am 8.5 -0.9 2.5 66 2.5 WNW 41 56 22 30 1004.0 1004.0 3.2
 
Date/Time
EST
Temp
°C
App
Temp
°C
Dew
Point
°C
Rel
Hum
%
Delta-T
°C
Wind Press
QNH
hPa
Press
MSL
hPa
Rain since
9am
mm
Dir  Spd
km/h
Gust
km/h
Spd
kts
Gust
kts
25/11:31pm 8.8 -0.6 2.4 64 2.7 WNW 41 61 22 33 1003.7 1003.7 3.2
25/11:30pm 8.8 -0.2 2.4 64 2.7 WNW 39 54 21 29 1003.6 1003.6 3.2
25/11:00pm 9.0 -0.3 3.0 66 2.6 WNW 41 61 22 33 1003.5 1003.5 3.2
25/10:30pm 8.9 0.7 2.7 65 2.6 WNW 35 56 19 30 1003.4 1003.4 3.2
25/10:06pm 8.9 1.1 2.7 65 2.6 WNW 33 56 18 30 1003.0 1003.0 3.2
25/10:00pm 8.5 0.4 3.1 69 2.3 WNW 35 50 19 27 1003.0 1003.0 3.2
25/09:31pm 9.5 -0.6 3.5 66 2.6 WNW 46 65 25 35 1002.6 1002.6 3.2
25/09:30pm 9.5 -1.0 3.5 66 2.6 WNW 48 65 26 35 1002.5 1002.5 3.2
25/09:00pm 9.9 1.3 4.9 71 2.3 WNW 39 67 21 36 1002.5 1002.5 3.2
25/08:54pm 9.7 2.0 5.3 74 2.0 WNW 35 67 19 36 1002.7 1002.7 3.2
25/08:30pm 8.9 2.6 5.8 81 1.4 NW 28 46 15 25 1002.4 1002.4 3.2
25/08:02pm 8.1 1.1 6.2 88 0.9 W 32 52 17 28 1003.3 1003.3 2.6
25/08:00pm 8.2 1.3 6.3 88 0.9 W 32 43 17 23 1003.3 1003.3 2.4
25/07:57pm 8.7 1.9 6.7 87 0.9 W 32 43 17 23 1003.3 1003.3 2.0
25/07:30pm 10.5 4.2 5.5 71 2.3 NW 28 46 15 25 1001.3 1001.3 0.0
25/07:05pm 11.0 3.5 4.5 64 2.9 NNW 33 54 18 29 1000.2 1000.2 0.0
25/07:00pm 11.3 4.3 4.1 61 3.2 NNW 30 44 16 24 1000.2 1000.2 0.0
25/06:30pm 11.5 4.0 3.3 57 3.6 NNW 32 44 17 24 1000.3 1000.3 0.0
25/06:23pm 11.6 4.8 3.1 56 3.7 NNW 28 46 15 25 1000.6 1000.6 0.0
25/06:00pm 11.4 6.1 2.9 56 3.7 NNW 20 28 11 15 1000.9 1000.9 0.0
25/05:30pm 11.1 6.1 3.6 60 3.3 N 19 28 10 15 1001.4 1001.4 0.0
25/05:00pm 11.6 5.9 3.1 56 3.7 NNW 22 30 12 16 1001.8 1001.8 0.0
25/04:30pm 12.0 3.9 3.5 56 3.8 NNW 35 46 19 25 1001.8 1001.8 0.0
25/04:14pm 12.0 4.5 3.3 55 3.8 NNW 32 54 17 29 1001.6 1001.6 0.0
25/04:00pm 12.4 5.7 3.9 56 3.8 NNW 28 41 15 22 1001.9 1001.9 0.0
25/03:30pm 13.0 7.3 4.7 57 3.8 NW 24 35 13 19 1002.9 1002.9 0.0
25/03:00pm 12.8 6.8 5.2 60 3.5 NW 26 41 14 22 1003.3 1003.3 0.0
25/02:30pm 11.9 5.6 5.5 65 3.0 WNW 28 39 15 21 1003.2 1003.2 0.0
25/02:00pm 11.5 4.5 5.8 68 2.7 NW 32 43 17 23 1004.0 1004.0 0.0
25/01:30pm 11.2 5.0 6.3 72 2.3 NW 28 41 15 22 1004.6 1004.6 0.0
25/01:00pm 11.9 6.6 7.0 72 2.4 NW 24 35 13 19 1005.0 1005.0 0.0
25/12:30pm 12.1 5.7 6.8 70 2.5 NW 30 41 16 22 1005.2 1005.2 0.0
25/12:00pm 11.9 5.0 7.2 73 2.3 WNW 33 48 18 26 1005.6 1005.6 0.0
25/11:30am 11.2 5.2 6.9 75 2.0 WNW 28 44 15 24 1005.9 1005.9 0.0
25/11:00am 10.7 4.6 6.5 75 2.0 WNW 28 43 15 23 1006.2 1006.2 0.0
25/10:30am 10.6 4.9 6.6 76 1.9 WNW 26 37 14 20 1006.2 1006.2 0.0
25/10:00am 11.0 4.9 6.6 74 2.1 WNW 28 41 15 22 1006.0 1006.0 0.0
25/09:30am 10.6 4.4 6.0 73 2.1 WNW 28 41 15 22 1006.0 1006.0 0.0
25/09:00am 10.3 3.2 5.7 73 2.1 WNW 32 44 17 24 1005.9 1005.9 0.0
25/08:30am 9.4 3.8 5.4 76 1.8 NW 24 39 13 21 1005.5 1005.5 0.0
25/08:00am 8.6 3.3 5.2 79 1.5 NW 22 35 12 19 1005.5 1005.5 0.0
25/07:30am 8.4 3.7 5.0 79 1.5 NW 19 24 10 13 1005.4 1005.4 0.0

Other Formats:

Comma delimited format used in spreadsheet applications
http://www.bom.gov.au/fwo/IDV60801/IDV60801.95890.axf

JavaScript Object Notation format (JSON) in row-major order
http://www.bom.gov.au/fwo/IDV60801/IDV60801.95890.json